Time;durP1;ratioP1;P1;durP2;ratioP2;P2;SDS_P1;SDS_P2;PMS_P1;PMS_P2;Temp;Humidity;BMP_temperature;BMP_pressure;BME280_temperature;BME280_humidity;BME280_pressure;Samples;Min_cycle;Max_cycle;Signal;HPM_P1;HPM_P2
2023/01/11 00:01:26;;;;;;;1.00;0.50;;;10.50;99.90;;;;;;4873070;29;20520;-87
2023/01/11 00:03:51;;;;;;;2.10;0.50;;;10.60;99.90;;;;;;4881110;29;20188;-86
2023/01/11 00:06:17;;;;;;;1.27;0.50;;;10.60;99.90;;;;;;4873063;29;20555;-89
2023/01/11 00:08:43;;;;;;;0.90;0.50;;;10.60;99.90;;;;;;4871144;29;20215;-87
2023/01/11 00:11:14;;;;;;;1.00;0.50;;;10.60;99.90;;;;;;4865650;29;20517;-87
2023/01/11 00:13:39;;;;;;;1.57;0.63;;;10.70;99.90;;;;;;4877163;29;20191;-88
2023/01/11 00:16:07;;;;;;;0.90;0.60;;;10.70;99.90;;;;;;4871804;29;20983;-87
2023/01/11 00:18:32;;;;;;;3.33;1.17;;;10.70;99.90;;;;;;4877602;29;20187;-87
2023/01/11 00:20:59;;;;;;;1.87;0.60;;;10.80;99.90;;;;;;4870901;29;20468;-88
2023/01/11 00:23:25;;;;;;;1.93;0.60;;;10.80;99.90;;;;;;4874822;29;20297;-88
2023/01/11 00:25:50;;;;;;;1.33;0.60;;;10.80;99.90;;;;;;4869895;29;20444;-87
2023/01/11 00:28:17;;;;;;;2.60;0.60;;;10.80;99.90;;;;;;4876383;29;20686;-88
2023/01/11 00:30:43;;;;;;;0.90;0.50;;;10.80;99.90;;;;;;4864601;29;20463;-88
2023/01/11 00:33:10;;;;;;;0.90;0.60;;;10.90;99.90;;;;;;4874243;29;20184;-87
2023/01/11 00:35:35;;;;;;;0.90;0.50;;;10.90;99.90;;;;;;4863449;29;20658;-87
2023/01/11 00:38:01;;;;;;;1.90;0.57;;;10.90;99.90;;;;;;4877033;29;20458;-87
2023/01/11 00:40:26;;;;;;;1.00;0.60;;;10.90;99.90;;;;;;4870074;29;20211;-87
2023/01/11 00:48:20;;;;;;;0.90;0.50;;;11.00;99.90;;;;;;4866732;29;20820;-87
2023/01/11 00:50:46;;;;;;;1.00;0.60;;;11.00;99.90;;;;;;4873949;29;20464;-88
2023/01/11 00:53:13;;;;;;;1.10;0.60;;;11.00;99.90;;;;;;4871495;29;20184;-87
2023/01/11 00:55:38;;;;;;;1.30;0.50;;;11.10;99.90;;;;;;4876408;29;21371;-88
2023/01/11 00:58:04;;;;;;;1.40;0.50;;;11.10;99.90;;;;;;4867260;29;20547;-87
2023/01/11 01:00:30;;;;;;;1.03;0.60;;;11.10;99.90;;;;;;4872883;29;20651;-87
2023/01/11 01:02:56;;;;;;;0.90;0.53;;;11.10;99.90;;;;;;4875513;29;20657;-88
2023/01/11 01:05:21;;;;;;;1.07;0.60;;;11.20;99.90;;;;;;4889422;29;20192;-87
2023/01/11 01:07:47;;;;;;;1.47;0.60;;;11.20;99.90;;;;;;4872180;29;20527;-86
2023/01/11 01:10:15;;;;;;;0.90;0.50;;;11.20;99.90;;;;;;4870937;29;20203;-87
2023/01/11 01:15:25;;;;;;;1.30;0.60;;;11.30;99.90;;;;;;4869311;29;20527;-87
2023/01/11 01:17:54;;;;;;;2.17;0.67;;;11.30;99.90;;;;;;4874380;29;20444;-87
2023/01/11 01:20:23;;;;;;;0.90;0.53;;;11.30;99.90;;;;;;4889876;29;20523;-88
2023/01/11 01:22:49;;;;;;;1.10;0.50;;;11.40;99.90;;;;;;4871613;29;20459;-87
2023/01/11 01:25:15;;;;;;;0.90;0.60;;;11.40;99.90;;;;;;4871668;29;20447;-87
2023/01/11 01:27:41;;;;;;;2.07;0.60;;;11.40;99.90;;;;;;4868396;29;20563;-87
2023/01/11 01:30:07;;;;;;;1.00;0.63;;;11.50;99.90;;;;;;4866176;29;20207;-87
2023/01/11 01:32:33;;;;;;;0.90;0.50;;;11.50;99.90;;;;;;4872682;29;20314;-87
2023/01/11 01:34:58;;;;;;;1.03;0.50;;;11.50;99.90;;;;;;4874182;29;21136;-87
2023/01/11 01:37:24;;;;;;;1.30;0.70;;;11.60;99.90;;;;;;4871198;29;20263;-87
2023/01/11 01:39:49;;;;;;;0.90;0.50;;;11.60;99.90;;;;;;4877153;29;20302;-88
2023/01/11 01:42:18;;;;;;;1.07;0.57;;;11.60;99.90;;;;;;4872355;29;20195;-87
2023/01/11 01:45:15;;;;;;;1.10;0.47;;;11.60;99.90;;;;;;4885687;29;20764;-88
2023/01/11 01:47:54;;;;;;;0.90;0.50;;;11.60;99.90;;;;;;4885293;29;20428;-86
2023/01/11 01:50:26;;;;;;;0.80;0.40;;;11.70;99.90;;;;;;4879498;29;20459;-88
2023/01/11 01:52:57;;;;;;;1.33;0.60;;;11.70;99.90;;;;;;4868868;29;20510;-87
2023/01/11 01:55:28;;;;;;;1.10;0.50;;;11.70;99.90;;;;;;4858244;29;20463;-87
2023/01/11 01:57:55;;;;;;;2.07;0.90;;;11.70;99.90;;;;;;4871416;29;20459;-87
2023/01/11 02:00:20;;;;;;;3.43;0.50;;;11.80;99.90;;;;;;4867626;29;20504;-87
2023/01/11 02:02:47;;;;;;;0.90;0.50;;;11.80;99.90;;;;;;4865595;29;20488;-87
2023/01/11 02:05:16;;;;;;;1.13;0.60;;;11.80;99.90;;;;;;4869367;29;20334;-88
2023/01/11 02:07:43;;;;;;;1.10;0.60;;;11.80;99.90;;;;;;4872438;29;20440;-87
2023/01/11 02:10:14;;;;;;;1.10;0.70;;;11.90;99.90;;;;;;4870452;29;20515;-87
2023/01/11 02:12:45;;;;;;;1.20;0.50;;;11.90;99.90;;;;;;4867411;29;21033;-88
2023/01/11 02:15:13;;;;;;;3.27;0.60;;;11.80;99.90;;;;;;4855889;29;20467;-87
2023/01/11 02:17:38;;;;;;;1.77;0.50;;;11.80;99.90;;;;;;4868964;29;20524;-87
2023/01/11 02:20:33;;;;;;;0.90;0.50;;;11.90;99.90;;;;;;4870998;29;20475;-87
2023/01/11 02:23:04;;;;;;;2.13;0.70;;;11.90;1.00;;;;;;4868226;29;20236;-88
2023/01/11 02:26:02;;;;;;;0.90;0.63;;;11.80;1.00;;;;;;4875294;29;20546;-87
2023/01/11 02:28:50;;;;;;;1.57;0.50;;;11.80;1.00;;;;;;4866606;29;20469;-88
2023/01/11 02:31:33;;;;;;;0.80;0.50;;;11.80;1.00;;;;;;4862878;29;20476;-88
2023/01/11 02:34:40;;;;;;;1.10;0.50;;;11.80;1.00;;;;;;4872816;29;20457;-87
2023/01/11 02:37:38;;;;;;;0.87;0.47;;;11.80;1.00;;;;;;4875239;29;20456;-87
2023/01/11 02:40:16;;;;;;;2.50;0.80;;;11.80;1.00;;;;;;4858037;29;20484;-87
2023/01/11 02:46:00;;;;;;;0.80;0.40;;;11.80;1.00;;;;;;4863726;29;20954;-88
2023/01/11 02:48:59;;;;;;;0.90;0.50;;;11.80;1.00;;;;;;4875822;29;20495;-88
2023/01/11 02:51:41;;;;;;;0.80;0.40;;;11.80;1.00;;;;;;4856980;29;20509;-87
2023/01/11 02:54:15;;;;;;;0.80;0.50;;;11.90;1.00;;;;;;4873560;29;20512;-89
2023/01/11 02:56:46;;;;;;;0.80;0.40;;;11.90;1.00;;;;;;4893866;29;20460;-87
2023/01/11 02:59:17;;;;;;;1.00;0.50;;;11.90;1.00;;;;;;4889894;29;20466;-89
2023/01/11 03:01:49;;;;;;;1.03;0.50;;;11.90;1.00;;;;;;4895345;29;20527;-90
2023/01/11 03:04:26;;;;;;;0.80;0.40;;;12.00;1.00;;;;;;4891258;29;20428;-89
2023/01/11 03:07:00;;;;;;;0.90;0.50;;;12.00;1.00;;;;;;4896189;29;20431;-89
2023/01/11 03:09:52;;;;;;;0.80;0.50;;;12.00;1.00;;;;;;4886190;29;20507;-86
2023/01/11 03:12:53;;;;;;;1.07;0.50;;;12.10;1.00;;;;;;4865850;29;20591;-87
2023/01/11 03:15:41;;;;;;;0.90;0.50;;;12.10;1.00;;;;;;4863259;29;20470;-87
2023/01/11 03:18:37;;;;;;;1.00;0.50;;;12.10;1.00;;;;;;4877712;29;20471;-87
2023/01/11 03:21:25;;;;;;;1.40;0.50;;;12.00;1.00;;;;;;4877461;29;20471;-87
2023/01/11 03:24:01;;;;;;;1.50;0.50;;;12.00;1.00;;;;;;4868837;29;20460;-87
2023/01/11 03:27:05;;;;;;;1.73;0.50;;;12.00;1.00;;;;;;4856998;29;21001;-88
2023/01/11 03:29:40;;;;;;;2.70;0.50;;;12.00;1.00;;;;;;4862076;29;20543;-87
2023/01/11 03:32:36;;;;;;;1.00;0.50;;;11.90;1.00;;;;;;4870261;29;20447;-87
2023/01/11 03:35:22;;;;;;;1.00;0.60;;;11.80;1.00;;;;;;4864097;29;20638;-87
2023/01/11 03:38:00;;;;;;;2.33;0.70;;;11.80;1.00;;;;;;4875191;29;20564;-87
2023/01/11 03:40:30;;;;;;;2.17;0.60;;;11.80;1.00;;;;;;4858282;29;20486;-87
2023/01/11 03:43:11;;;;;;;1.10;0.67;;;11.70;1.00;;;;;;4874796;29;20448;-86
2023/01/11 03:45:55;;;;;;;2.60;0.70;;;11.70;1.00;;;;;;4871327;29;20475;-86
2023/01/11 03:48:36;;;;;;;1.60;0.70;;;11.70;1.00;;;;;;4873466;29;20475;-86
2023/01/11 03:51:04;;;;;;;1.33;0.57;;;11.60;1.00;;;;;;4874652;29;20589;-86
2023/01/11 03:53:33;;;;;;;1.47;0.63;;;11.60;1.00;;;;;;4874398;29;20452;-85
2023/01/11 03:56:01;;;;;;;2.30;0.57;;;11.60;1.00;;;;;;4873831;29;20530;-86
2023/01/11 03:58:28;;;;;;;1.03;0.50;;;11.60;1.00;;;;;;4869172;29;20444;-86
2023/01/11 04:00:58;;;;;;;6.10;0.50;;;11.60;1.00;;;;;;4877198;29;20481;-85
2023/01/11 04:03:24;;;;;;;0.90;0.50;;;11.60;1.00;;;;;;4871531;29;20440;-85
2023/01/11 04:05:53;;;;;;;0.90;0.50;;;11.60;1.00;;;;;;4880471;29;20955;-85
2023/01/11 04:08:19;;;;;;;0.90;0.53;;;11.60;1.00;;;;;;4883229;29;20243;-85
2023/01/11 04:10:44;;;;;;;0.80;0.40;;;11.60;1.00;;;;;;4877990;29;20955;-85
2023/01/11 04:13:10;;;;;;;0.90;0.50;;;11.60;1.00;;;;;;4875102;29;20192;-84
2023/01/11 04:15:36;;;;;;;0.80;0.40;;;11.60;1.00;;;;;;4877976;29;20201;-85
2023/01/11 04:18:05;;;;;;;0.80;0.40;;;11.60;1.00;;;;;;4878240;29;20194;-85
2023/01/11 04:20:35;;;;;;;0.90;0.50;;;11.60;1.00;;;;;;4876026;29;20278;-85
2023/01/11 04:23:01;;;;;;;1.00;0.50;;;11.60;1.00;;;;;;4882846;29;20940;-85
2023/01/11 04:25:27;;;;;;;1.83;0.50;;;11.60;1.00;;;;;;4882288;29;20448;-85
2023/01/11 04:27:52;;;;;;;1.10;0.50;;;11.60;1.00;;;;;;4885593;29;20235;-85
2023/01/11 04:30:18;;;;;;;1.97;0.50;;;11.70;1.00;;;;;;4870998;29;20276;-84
2023/01/11 04:32:44;;;;;;;1.00;0.60;;;11.70;1.00;;;;;;4883873;29;20220;-85
2023/01/11 04:35:09;;;;;;;2.00;0.50;;;11.70;1.00;;;;;;4878362;29;20215;-85
2023/01/11 04:37:38;;;;;;;1.73;0.50;;;11.70;1.00;;;;;;4886605;29;20269;-85
2023/01/11 04:40:04;;;;;;;0.80;0.40;;;11.70;1.00;;;;;;4881461;29;20215;-85
2023/01/11 04:42:29;;;;;;;0.80;0.50;;;11.70;1.00;;;;;;4884100;29;20468;-85
2023/01/11 04:44:55;;;;;;;0.80;0.40;;;11.70;1.00;;;;;;4879947;29;20476;-85
2023/01/11 04:47:22;;;;;;;0.80;0.40;;;11.70;1.00;;;;;;4878149;29;20196;-85
2023/01/11 04:49:48;;;;;;;0.90;0.50;;;11.80;1.00;;;;;;4871331;29;20245;-85
2023/01/11 04:52:16;;;;;;;0.80;0.40;;;11.70;1.00;;;;;;4883499;29;20482;-85
2023/01/11 04:54:42;;;;;;;1.53;0.40;;;11.80;1.00;;;;;;4875761;29;20257;-84
2023/01/11 04:57:12;;;;;;;1.10;0.50;;;11.80;1.00;;;;;;4886153;29;20444;-85
2023/01/11 04:59:38;;;;;;;1.20;0.50;;;11.80;1.00;;;;;;4882790;29;20524;-85
2023/01/11 05:02:03;;;;;;;1.00;0.50;;;11.80;1.00;;;;;;4887172;29;20448;-84
2023/01/11 05:04:29;;;;;;;0.80;0.50;;;11.80;1.00;;;;;;4880620;29;20459;-85
2023/01/11 05:06:55;;;;;;;0.90;0.50;;;11.80;1.00;;;;;;4881709;29;20196;-85
2023/01/11 05:09:21;;;;;;;1.30;0.50;;;11.80;1.00;;;;;;4900574;29;20464;-85
2023/01/11 05:11:47;;;;;;;1.00;0.60;;;11.80;1.00;;;;;;4877050;29;20196;-85
2023/01/11 05:14:14;;;;;;;1.03;0.40;;;11.80;1.00;;;;;;4871770;29;20476;-85
2023/01/11 05:16:40;;;;;;;1.23;0.50;;;11.80;1.00;;;;;;4885280;29;20472;-84
2023/01/11 05:19:05;;;;;;;0.87;0.50;;;11.80;1.00;;;;;;4877664;29;20550;-85
2023/01/11 05:21:33;;;;;;;4.10;0.57;;;11.80;1.00;;;;;;4894555;29;20192;-85
2023/01/11 05:24:00;;;;;;;1.00;0.50;;;11.80;1.00;;;;;;4879457;29;20187;-85
2023/01/11 05:26:32;;;;;;;2.13;0.50;;;11.70;1.00;;;;;;4887461;29;20467;-84
2023/01/11 05:29:06;;;;;;;2.87;0.63;;;11.70;1.00;;;;;;4875723;29;20471;-84
2023/01/11 05:31:32;;;;;;;1.10;0.50;;;11.70;1.00;;;;;;4881706;29;20443;-83
2023/01/11 05:33:58;;;;;;;3.63;0.80;;;11.70;1.00;;;;;;4876441;29;20437;-83
2023/01/11 05:36:25;;;;;;;2.50;0.57;;;11.70;1.00;;;;;;4879785;29;20514;-83
2023/01/11 05:38:52;;;;;;;0.90;0.50;;;11.70;1.00;;;;;;4863884;29;20220;-82
2023/01/11 05:41:20;;;;;;;0.90;0.50;;;11.70;1.00;;;;;;4867724;29;20473;-83
2023/01/11 05:46:33;;;;;;;1.50;0.50;;;11.70;1.00;;;;;;4882474;29;21124;-83
2023/01/11 05:49:01;;;;;;;0.80;0.40;;;11.70;1.00;;;;;;4879098;29;20472;-83
2023/01/11 05:51:31;;;;;;;0.90;0.40;;;11.60;1.00;;;;;;4884002;29;20458;-83
2023/01/11 05:53:57;;;;;;;1.00;0.53;;;11.60;1.00;;;;;;4872590;29;20455;-82
2023/01/11 05:56:23;;;;;;;0.80;0.40;;;11.60;1.00;;;;;;4875839;29;20960;-82
2023/01/11 05:58:50;;;;;;;0.80;0.40;;;11.60;1.00;;;;;;4866698;29;20469;-82
2023/01/11 06:01:18;;;;;;;1.33;0.50;;;11.60;1.00;;;;;;4895522;29;20286;-83
2023/01/11 06:03:44;;;;;;;1.33;0.67;;;11.60;1.00;;;;;;4879673;29;20440;-83
2023/01/11 06:06:10;;;;;;;0.90;0.50;;;11.60;1.00;;;;;;4878811;29;20516;-82
2023/01/11 06:08:35;;;;;;;2.27;0.60;;;11.60;1.00;;;;;;4878696;29;20439;-82
2023/01/11 06:11:01;;;;;;;0.97;0.53;;;11.60;1.00;;;;;;4870613;29;20344;-80
2023/01/11 06:13:27;;;;;;;1.00;0.60;;;11.60;1.00;;;;;;4875503;29;20206;-83
2023/01/11 06:16:12;;;;;;;1.03;0.60;;;11.60;1.00;;;;;;4880589;29;20208;-82
2023/01/11 06:18:41;;;;;;;6.00;2.10;;;11.60;1.00;;;;;;4870504;29;20240;-82
2023/01/11 06:21:07;;;;;;;0.80;0.50;;;11.60;1.00;;;;;;4883235;29;20865;-82
2023/01/11 06:23:34;;;;;;;1.90;0.60;;;11.60;1.00;;;;;;4874391;29;20440;-82
2023/01/11 06:26:02;;;;;;;1.37;0.60;;;11.60;1.00;;;;;;4895739;29;20913;-81
2023/01/11 06:28:27;;;;;;;1.33;0.97;;;11.60;1.00;;;;;;4866102;29;20467;-82
2023/01/11 06:30:54;;;;;;;0.90;0.50;;;11.60;1.00;;;;;;4877777;29;20444;-82
2023/01/11 06:33:21;;;;;;;1.00;0.80;;;11.60;1.00;;;;;;4872520;29;20284;-81
2023/01/11 06:35:47;;;;;;;0.90;0.60;;;11.60;1.00;;;;;;4880794;29;20448;-80
2023/01/11 06:38:15;;;;;;;1.03;0.70;;;11.60;1.00;;;;;;4869312;29;20657;-83
2023/01/11 06:40:41;;;;;;;1.40;0.80;;;11.60;1.00;;;;;;4875879;29;20272;-81
2023/01/11 06:43:08;;;;;;;1.07;0.57;;;11.60;1.00;;;;;;4870444;29;20456;-81
2023/01/11 06:45:37;;;;;;;1.00;0.60;;;11.60;1.00;;;;;;4862119;29;20468;-82
2023/01/11 06:48:03;;;;;;;0.80;0.50;;;11.60;1.00;;;;;;4870264;29;20523;-81
2023/01/11 06:50:30;;;;;;;1.00;0.60;;;11.60;1.00;;;;;;4876483;29;22544;-83
2023/01/11 06:53:02;;;;;;;0.90;0.60;;;11.60;1.00;;;;;;4875540;29;20444;-83
2023/01/11 06:55:29;;;;;;;1.00;0.70;;;11.70;1.00;;;;;;4872420;29;20454;-82
2023/01/11 06:57:54;;;;;;;1.00;0.60;;;11.70;1.00;;;;;;4870544;29;20449;-83
2023/01/11 07:00:20;;;;;;;1.03;0.70;;;11.70;1.00;;;;;;4864244;29;20552;-83
2023/01/11 07:02:47;;;;;;;3.20;1.00;;;11.70;1.00;;;;;;4877790;29;20196;-83
2023/01/11 07:05:14;;;;;;;1.10;0.80;;;11.70;1.00;;;;;;4874682;29;20440;-81
2023/01/11 07:07:40;;;;;;;1.63;1.53;;;11.70;1.00;;;;;;4883888;29;20440;-81
2023/01/11 07:10:11;;;;;;;1.50;0.90;;;11.70;1.00;;;;;;4877468;29;20527;-81
2023/01/11 07:12:37;;;;;;;0.90;0.70;;;11.60;1.00;;;;;;4873037;29;20460;-83
2023/01/11 07:15:04;;;;;;;2.17;0.87;;;11.60;1.00;;;;;;4867192;29;20448;-83
2023/01/11 07:17:30;;;;;;;4.70;1.10;;;11.60;1.00;;;;;;4877712;29;20184;-83
2023/01/11 07:19:56;;;;;;;5.87;1.40;;;11.60;1.00;;;;;;4883674;29;20567;-83
2023/01/11 07:22:21;;;;;;;3.53;1.60;;;11.60;1.00;;;;;;4898397;29;20184;-84
2023/01/11 07:24:47;;;;;;;2.07;1.50;;;11.60;1.00;;;;;;4882853;29;20192;-83
2023/01/11 07:27:13;;;;;;;2.10;1.50;;;11.60;1.00;;;;;;4885264;29;20247;-83
2023/01/11 07:29:39;;;;;;;4.80;1.80;;;11.60;1.00;;;;;;4878477;29;20508;-82
2023/01/11 07:32:05;;;;;;;2.17;1.53;;;11.60;1.00;;;;;;4873267;29;20192;-81
2023/01/11 07:34:30;;;;;;;5.40;1.33;;;11.60;1.00;;;;;;4879124;29;20219;-81
2023/01/11 07:36:56;;;;;;;4.10;1.80;;;11.60;1.00;;;;;;4878024;29;20444;-79
2023/01/11 07:39:21;;;;;;;5.47;1.57;;;11.70;1.00;;;;;;4877508;29;20207;-80
2023/01/11 07:44:31;;;;;;;5.63;3.03;;;11.70;1.00;;;;;;4872597;29;20190;-79
2023/01/11 07:46:57;;;;;;;2.83;1.73;;;11.70;1.00;;;;;;4875893;29;20519;-80
2023/01/11 07:49:22;;;;;;;3.73;1.50;;;11.70;1.00;;;;;;4882675;29;20701;-79
2023/01/11 07:51:50;;;;;;;3.00;1.80;;;11.70;1.00;;;;;;4874507;29;20744;-80
2023/01/11 07:54:16;;;;;;;2.10;1.47;;;11.70;1.00;;;;;;4894607;29;20191;-80
2023/01/11 07:56:42;;;;;;;2.47;1.47;;;11.60;1.00;;;;;;4877982;29;20453;-80
2023/01/11 07:59:08;;;;;;;3.10;1.50;;;11.60;1.00;;;;;;4860125;29;20241;-82
2023/01/11 08:01:34;;;;;;;2.57;1.50;;;11.70;1.00;;;;;;4864626;29;20188;-81
2023/01/11 08:03:59;;;;;;;3.63;1.57;;;11.70;1.00;;;;;;4866324;29;20544;-81
2023/01/11 08:06:25;;;;;;;5.97;1.70;;;11.70;1.00;;;;;;4869588;29;20185;-82
2023/01/11 08:08:50;;;;;;;2.90;1.63;;;11.60;1.00;;;;;;4866972;29;20341;-81
2023/01/11 08:16:44;;;;;;;2.70;1.93;;;11.60;1.00;;;;;;4866209;29;20823;-80
2023/01/11 08:19:09;;;;;;;4.00;1.70;;;11.70;1.00;;;;;;4873485;29;20449;-81
2023/01/11 08:21:35;;;;;;;6.13;1.93;;;11.70;1.00;;;;;;4854608;29;20240;-81
2023/01/11 08:24:00;;;;;;;7.43;2.00;;;11.70;1.00;;;;;;4877559;29;20236;-82
2023/01/11 08:26:26;;;;;;;3.10;1.87;;;11.70;1.00;;;;;;4874802;29;20201;-82
2023/01/11 08:28:53;;;;;;;6.33;2.80;;;11.80;1.00;;;;;;4869099;29;20208;-82
2023/01/11 08:31:20;;;;;;;5.30;2.40;;;11.80;1.00;;;;;;4866351;29;20581;-82
2023/01/11 08:33:47;;;;;;;4.43;2.40;;;11.80;1.00;;;;;;4871774;29;20511;-82
2023/01/11 08:36:12;;;;;;;13.23;2.60;;;11.90;1.00;;;;;;4871840;29;20441;-81
2023/01/11 08:38:38;;;;;;;5.30;2.90;;;11.90;1.00;;;;;;4875680;29;20538;-81
2023/01/11 08:41:09;;;;;;;6.53;3.73;;;11.90;1.00;;;;;;4867148;29;20243;-81
2023/01/11 08:43:35;;;;;;;8.17;3.30;;;11.90;1.00;;;;;;4895353;29;20459;-81
2023/01/11 08:46:01;;;;;;;10.37;4.30;;;11.90;1.00;;;;;;4869790;29;20505;-82
2023/01/11 08:48:27;;;;;;;10.87;4.80;;;12.00;1.00;;;;;;4862738;29;20444;-81
2023/01/11 08:50:52;;;;;;;10.60;4.17;;;12.00;1.00;;;;;;4872453;29;20208;-82
2023/01/11 08:53:19;;;;;;;7.97;4.10;;;12.00;1.00;;;;;;4868407;29;20191;-81
2023/01/11 08:55:47;;;;;;;11.57;4.83;;;12.00;1.00;;;;;;4882815;29;20196;-82
2023/01/11 08:58:13;;;;;;;11.30;5.50;;;12.00;1.00;;;;;;4869254;29;20500;-81
2023/01/11 09:00:38;;;;;;;13.53;4.53;;;11.90;1.00;;;;;;4873811;29;20506;-82
2023/01/11 09:03:04;;;;;;;18.90;6.07;;;12.00;1.00;;;;;;4873262;29;20189;-81
2023/01/11 09:05:29;;;;;;;12.80;4.87;;;11.90;1.00;;;;;;4864985;29;20192;-82
2023/01/11 09:07:55;;;;;;;19.23;6.30;;;11.90;1.00;;;;;;4871182;29;20732;-82
2023/01/11 09:10:25;;;;;;;21.33;6.47;;;11.90;1.00;;;;;;4848718;29;20254;-82
2023/01/11 09:12:52;;;;;;;11.77;5.40;;;11.90;1.00;;;;;;4862682;29;20456;-82
2023/01/11 09:15:17;;;;;;;11.00;5.37;;;11.90;1.00;;;;;;4866788;29;20449;-83
2023/01/11 09:17:44;;;;;;;17.53;5.80;;;11.90;1.00;;;;;;4860532;29;20509;-82
2023/01/11 09:20:11;;;;;;;16.90;6.67;;;11.90;1.00;;;;;;4857965;29;20215;-83
2023/01/11 09:22:36;;;;;;;17.93;7.70;;;11.90;1.00;;;;;;4863713;29;20448;-83
2023/01/11 09:25:02;;;;;;;15.60;6.80;;;11.90;1.00;;;;;;4856059;29;20430;-83
2023/01/11 09:27:28;;;;;;;17.20;7.67;;;11.90;1.00;;;;;;4851502;29;20276;-83
2023/01/11 09:29:53;;;;;;;11.40;6.50;;;11.90;1.00;;;;;;4864915;29;20960;-82
2023/01/11 09:32:19;;;;;;;15.30;6.73;;;11.90;1.00;;;;;;4856049;29;20261;-83
2023/01/11 09:34:46;;;;;;;13.50;6.10;;;11.90;1.00;;;;;;4853409;29;20228;-83
2023/01/11 09:37:11;;;;;;;15.07;6.57;;;11.90;1.00;;;;;;4851751;29;20208;-83
2023/01/11 09:39:38;;;;;;;14.80;5.63;;;11.90;1.00;;;;;;4854906;29;20469;-83
2023/01/11 09:42:31;;;;;;;17.00;5.43;;;11.90;1.00;;;;;;4858705;29;20271;-84
2023/01/11 09:45:16;;;;;;;14.90;5.93;;;11.90;1.00;;;;;;4864618;29;20533;-82
2023/01/11 09:47:47;;;;;;;14.93;5.73;;;11.90;1.00;;;;;;4869839;29;20486;-82
2023/01/11 09:50:24;;;;;;;14.70;6.10;;;11.80;1.00;;;;;;4892473;29;20518;-82
2023/01/11 09:53:07;;;;;;;14.53;6.17;;;11.80;1.00;;;;;;4879865;29;20448;-82
2023/01/11 09:55:34;;;;;;;13.70;6.87;;;11.90;1.00;;;;;;4874728;29;20480;-82
2023/01/11 09:58:17;;;;;;;17.37;6.17;;;11.90;1.00;;;;;;4874173;29;20867;-82
2023/01/11 10:01:16;;;;;;;15.30;6.20;;;12.00;99.90;;;;;;4858046;29;20552;-81
2023/01/11 10:03:57;;;;;;;17.87;5.77;;;12.00;99.90;;;;;;4860213;29;20980;-82
2023/01/11 10:06:25;;;;;;;13.97;6.07;;;12.10;99.90;;;;;;4865339;29;20428;-82
2023/01/11 10:09:09;;;;;;;14.87;6.53;;;12.10;99.90;;;;;;4855875;29;20459;-82
2023/01/11 10:12:08;;;;;;;15.57;5.30;;;12.10;99.90;;;;;;4867639;29;20463;-81
2023/01/11 10:14:52;;;;;;;16.33;5.40;;;12.10;11.50;;;;;;4860451;29;20484;-84
2023/01/11 10:17:35;;;;;;;13.13;4.70;;;12.20;53.30;;;;;;4863183;29;20469;-86
2023/01/11 10:20:36;;;;;;;14.13;5.67;;;12.20;1.00;;;;;;4873219;29;20476;-85
2023/01/11 10:23:08;;;;;;;23.23;4.73;;;12.30;1.00;;;;;;4868328;29;20551;-86
2023/01/11 10:25:45;;;;;;;11.30;4.00;;;12.30;1.00;;;;;;4874762;29;20824;-83
2023/01/11 10:28:23;;;;;;;17.97;4.57;;;12.40;99.90;;;;;;4874556;29;20463;-83
2023/01/11 10:42:45;;;;;;;8.40;3.77;;;13.00;1.00;;;;;;4869935;29;20445;-84
2023/01/11 10:45:38;;;;;;;6.63;3.77;;;13.10;1.00;;;;;;4873200;29;20447;-83
2023/01/11 10:48:14;;;;;;;12.63;3.43;;;13.10;99.90;;;;;;4880435;29;20440;-83
2023/01/11 10:51:10;;;;;;;12.90;4.03;;;13.10;65.10;;;;;;4864892;29;20496;-82
2023/01/11 10:54:15;;;;;;;11.83;3.90;;;13.20;1.00;;;;;;4865435;29;20447;-83
2023/01/11 10:57:24;;;;;;;14.93;4.30;;;13.40;99.90;;;;;;4867267;29;20450;-83
2023/01/11 11:00:14;;;;;;;12.70;4.30;;;13.40;1.00;;;;;;4877020;29;20481;-82
2023/01/11 11:02:58;;;;;;;17.80;3.40;;;13.40;1.00;;;;;;4889662;29;20464;-82
2023/01/11 11:05:57;;;;;;;10.43;3.63;;;13.40;1.00;;;;;;4875917;29;20443;-82
2023/01/11 11:08:42;;;;;;;22.00;3.77;;;13.40;1.00;;;;;;4863665;29;20551;-82
2023/01/11 11:11:35;;;;;;;11.87;3.77;;;13.40;99.90;;;;;;4860244;29;20988;-82
2023/01/11 11:14:04;;;;;;;14.27;3.93;;;13.40;99.90;;;;;;4877203;29;20482;-82
2023/01/11 11:16:33;;;;;;;7.90;3.00;;;13.50;99.90;;;;;;4870398;29;20446;-82
2023/01/11 11:18:58;;;;;;;10.90;3.10;;;13.40;99.90;;;;;;4865884;29;20467;-82
2023/01/11 11:21:37;;;;;;;11.23;3.87;;;13.20;13.60;;;;;;4877812;29;20475;-83
2023/01/11 11:24:18;;;;;;;11.10;3.50;;;13.10;1.00;;;;;;4864252;29;20179;-81
2023/01/11 11:26:50;;;;;;;17.70;3.50;;;12.80;74.30;;;;;;4865406;29;20492;-82
2023/01/11 11:29:22;;;;;;;15.53;4.50;;;12.60;1.00;;;;;;4867550;29;20450;-82
2023/01/11 11:31:48;;;;;;;13.57;4.00;;;12.50;99.90;;;;;;4859638;29;20466;-81
2023/01/11 11:34:16;;;;;;;13.20;3.93;;;12.60;99.90;;;;;;4863892;29;20442;-82
2023/01/11 11:36:48;;;;;;;14.93;3.93;;;12.60;1.00;;;;;;4864784;29;20443;-82
2023/01/11 11:39:29;;;;;;;11.23;3.80;;;12.70;1.00;;;;;;4875796;29;20441;-82
2023/01/11 11:42:03;;;;;;;15.83;3.70;;;13.00;1.00;;;;;;4861502;29;20545;-82
2023/01/11 11:44:28;;;;;;;14.17;4.00;;;14.20;99.90;;;;;;4882418;29;20463;-83
2023/01/11 11:47:10;;;;;;;9.70;3.67;;;15.00;26.60;;;;;;4859921;29;20950;-82
2023/01/11 11:49:38;;;;;;;8.67;3.20;;;15.50;1.00;;;;;;4864708;29;20208;-83
2023/01/11 11:52:05;;;;;;;12.33;3.30;;;16.10;1.00;;;;;;4861009;29;20444;-82
2023/01/11 11:54:39;;;;;;;17.23;3.00;;;16.30;1.00;;;;;;4867839;29;20431;-83
2023/01/11 11:57:13;;;;;;;10.23;3.07;;;16.90;1.00;;;;;;4856009;29;20456;-82
2023/01/11 11:59:46;;;;;;;12.47;3.67;;;16.90;99.90;;;;;;4856263;29;20501;-82
2023/01/11 12:02:25;;;;;;;14.97;4.03;;;16.50;99.90;;;;;;4862511;29;20446;-81
2023/01/11 12:04:52;;;;;;;12.17;3.53;;;16.30;99.90;;;;;;4863692;29;20420;-82
2023/01/11 12:07:27;;;;;;;12.17;3.50;;;16.90;99.90;;;;;;4860957;29;20450;-82
2023/01/11 12:10:10;;;;;;;12.40;3.40;;;17.30;99.90;;;;;;4865873;29;20846;-82
2023/01/11 12:12:53;;;;;;;8.87;3.10;;;17.60;99.90;;;;;;4868234;29;20990;-82
2023/01/11 12:15:22;;;;;;;13.13;3.40;;;17.90;99.90;;;;;;4859142;29;20970;-82
2023/01/11 12:17:48;;;;;;;8.70;2.63;;;18.60;99.90;;;;;;4868384;29;20463;-82
2023/01/11 12:20:22;;;;;;;17.33;3.10;;;18.80;99.90;;;;;;4860563;29;20479;-82
2023/01/11 12:23:05;;;;;;;11.77;2.50;;;19.00;99.90;;;;;;4863418;29;20409;-83
2023/01/11 12:25:33;;;;;;;9.93;2.50;;;19.50;99.90;;;;;;4862608;29;20455;-83
2023/01/11 12:28:27;;;;;;;9.50;2.87;;;19.90;99.90;;;;;;4861324;29;20470;-83
2023/01/11 12:31:06;;;;;;;11.17;2.97;;;20.50;99.90;;;;;;4861414;29;20452;-82
2023/01/11 12:33:50;;;;;;;12.47;3.30;;;20.90;99.90;;;;;;4863513;29;20432;-83
2023/01/11 12:36:40;;;;;;;9.67;2.90;;;21.00;99.90;;;;;;4866183;29;20933;-83
2023/01/11 12:39:18;;;;;;;7.23;2.07;;;21.10;99.90;;;;;;4861313;29;20461;-83
2023/01/11 12:42:00;;;;;;;10.00;2.57;;;21.10;99.90;;;;;;4860408;29;20441;-82
2023/01/11 12:44:48;;;;;;;5.20;2.20;;;21.10;99.90;;;;;;4849590;29;20422;-82
2023/01/11 12:47:22;;;;;;;11.60;2.57;;;21.40;99.90;;;;;;4858459;29;20430;-82
2023/01/11 12:50:15;;;;;;;11.00;3.20;;;21.30;99.90;;;;;;4850665;29;20472;-83
2023/01/11 12:53:10;;;;;;;11.70;3.30;;;21.00;99.90;;;;;;4876687;29;20443;-81
2023/01/11 12:55:47;;;;;;;13.97;3.30;;;20.30;99.90;;;;;;4859113;29;20476;-82
2023/01/11 12:58:38;;;;;;;15.10;3.67;;;19.80;99.90;;;;;;4858648;29;20932;-82
2023/01/11 13:01:25;;;;;;;9.70;2.80;;;19.30;99.90;;;;;;4854102;29;20525;-81
2023/01/11 13:04:31;;;;;;;20.30;2.90;;;18.60;99.90;;;;;;4861216;29;20467;-81
2023/01/11 13:07:04;;;;;;;11.03;2.50;;;18.00;99.90;;;;;;4878771;29;20469;-82
2023/01/11 13:09:59;;;;;;;11.80;2.60;;;17.70;99.90;;;;;;4881862;29;20555;-81
2023/01/11 13:12:28;;;;;;;11.50;3.27;;;17.10;99.90;;;;;;4857025;29;20453;-82
2023/01/11 13:15:03;;;;;;;16.43;2.27;;;16.50;99.90;;;;;;4843989;29;20473;-82
2023/01/11 13:17:47;;;;;;;13.50;2.87;;;16.10;99.90;;;;;;4855990;29;20505;-82
2023/01/11 13:20:42;;;;;;;19.73;2.87;;;15.70;99.90;;;;;;4844697;29;20465;-81
2023/01/11 13:23:35;;;;;;;14.50;4.10;;;15.30;99.90;;;;;;4852525;29;20943;-82
2023/01/11 13:26:20;;;;;;;16.57;2.70;;;15.10;99.90;;;;;;4860655;29;20583;-82
2023/01/11 13:29:14;;;;;;;12.10;3.00;;;15.10;99.90;;;;;;4862014;29;20495;-82
2023/01/11 13:31:42;;;;;;;18.27;2.80;;;15.30;99.90;;;;;;4871026;29;20616;-83
2023/01/11 13:34:37;;;;;;;9.93;2.67;;;16.10;99.90;;;;;;4865820;29;20453;-83
2023/01/11 13:37:32;;;;;;;12.63;3.30;;;16.90;99.90;;;;;;4866675;29;20448;-83
2023/01/11 13:40:00;;;;;;;12.13;2.47;;;17.20;99.90;;;;;;4862721;29;20494;-82
2023/01/11 13:43:03;;;;;;;15.97;3.50;;;16.90;99.90;;;;;;4869942;29;20442;-82
2023/01/11 13:45:35;;;;;;;17.70;3.37;;;16.50;99.90;;;;;;4858539;29;20460;-82
2023/01/11 13:48:10;;;;;;;13.20;3.67;;;16.80;99.90;;;;;;4874584;29;20443;-82
2023/01/11 13:50:48;;;;;;;15.00;2.97;;;17.10;99.90;;;;;;4859329;29;20491;-82
2023/01/11 13:53:35;;;;;;;8.97;3.00;;;17.30;99.90;;;;;;4857960;29;20459;-82